sensor_id;sensor_type;location;lat;lon;timestamp;temperature;humidity
39067;DHT22;24821;51.988;6.020;2024-03-17T00:00:14;6.10;99.90
39067;DHT22;24821;51.988;6.020;2024-03-17T00:02:41;6.10;99.90
39067;DHT22;24821;51.988;6.020;2024-03-17T00:05:07;6.10;99.90
39067;DHT22;24821;51.988;6.020;2024-03-17T00:07:32;6.10;99.90
39067;DHT22;24821;51.988;6.020;2024-03-17T00:09:58;6.10;99.90
39067;DHT22;24821;51.988;6.020;2024-03-17T00:12:23;6.10;99.90
39067;DHT22;24821;51.988;6.020;2024-03-17T00:14:49;6.10;99.90
39067;DHT22;24821;51.988;6.020;2024-03-17T00:17:14;6.10;99.90
39067;DHT22;24821;51.988;6.020;2024-03-17T00:19:40;6.10;99.90
39067;DHT22;24821;51.988;6.020;2024-03-17T00:22:06;6.10;99.90
39067;DHT22;24821;51.988;6.020;2024-03-17T00:24:34;6.10;99.90
39067;DHT22;24821;51.988;6.020;2024-03-17T00:27:03;6.00;99.90
39067;DHT22;24821;51.988;6.020;2024-03-17T00:29:28;6.00;99.90
39067;DHT22;24821;51.988;6.020;2024-03-17T00:31:54;6.10;99.90
39067;DHT22;24821;51.988;6.020;2024-03-17T00:34:19;6.10;99.90
39067;DHT22;24821;51.988;6.020;2024-03-17T00:36:45;6.10;99.90
39067;DHT22;24821;51.988;6.020;2024-03-17T00:39:11;6.10;99.90
39067;DHT22;24821;51.988;6.020;2024-03-17T00:41:39;6.10;99.90
39067;DHT22;24821;51.988;6.020;2024-03-17T00:44:05;6.10;99.90
39067;DHT22;24821;51.988;6.020;2024-03-17T00:46:31;6.10;99.90
39067;DHT22;24821;51.988;6.020;2024-03-17T00:48:58;6.10;99.90
39067;DHT22;24821;51.988;6.020;2024-03-17T00:51:23;6.10;99.90
39067;DHT22;24821;51.988;6.020;2024-03-17T00:53:49;6.10;99.90
39067;DHT22;24821;51.988;6.020;2024-03-17T00:56:14;6.10;99.90
39067;DHT22;24821;51.988;6.020;2024-03-17T00:58:40;6.10;99.90
39067;DHT22;24821;51.988;6.020;2024-03-17T01:01:06;6.10;99.90
39067;DHT22;24821;51.988;6.020;2024-03-17T01:03:32;6.10;99.90
39067;DHT22;24821;51.988;6.020;2024-03-17T01:05:57;6.00;99.90
39067;DHT22;24821;51.988;6.020;2024-03-17T01:08:23;6.00;99.90
39067;DHT22;24821;51.988;6.020;2024-03-17T01:10:48;6.00;99.90
39067;DHT22;24821;51.988;6.020;2024-03-17T01:13:15;6.00;99.90
39067;DHT22;24821;51.988;6.020;2024-03-17T01:15:41;6.00;99.90
39067;DHT22;24821;51.988;6.020;2024-03-17T01:18:07;5.90;99.90
39067;DHT22;24821;51.988;6.020;2024-03-17T01:20:33;5.90;99.90
39067;DHT22;24821;51.988;6.020;2024-03-17T01:22:59;5.90;99.90
39067;DHT22;24821;51.988;6.020;2024-03-17T01:25:25;5.90;99.90
39067;DHT22;24821;51.988;6.020;2024-03-17T01:27:51;5.90;99.90
39067;DHT22;24821;51.988;6.020;2024-03-17T01:30:17;5.90;99.90
39067;DHT22;24821;51.988;6.020;2024-03-17T01:32:42;5.90;99.90
39067;DHT22;24821;51.988;6.020;2024-03-17T01:35:08;5.90;99.90
39067;DHT22;24821;51.988;6.020;2024-03-17T01:37:33;5.90;99.90
39067;DHT22;24821;51.988;6.020;2024-03-17T01:39:59;6.00;99.90
39067;DHT22;24821;51.988;6.020;2024-03-17T01:42:24;5.90;99.90
39067;DHT22;24821;51.988;6.020;2024-03-17T01:44:50;5.90;99.90
39067;DHT22;24821;51.988;6.020;2024-03-17T01:47:16;5.90;99.90
39067;DHT22;24821;51.988;6.020;2024-03-17T01:49:44;5.90;99.90
39067;DHT22;24821;51.988;6.020;2024-03-17T01:52:10;5.90;99.90
39067;DHT22;24821;51.988;6.020;2024-03-17T01:54:35;5.80;99.90
39067;DHT22;24821;51.988;6.020;2024-03-17T01:57:02;5.80;99.90
39067;DHT22;24821;51.988;6.020;2024-03-17T01:59:28;5.80;99.90
39067;DHT22;24821;51.988;6.020;2024-03-17T02:01:53;5.90;99.90
39067;DHT22;24821;51.988;6.020;2024-03-17T02:04:18;5.90;99.90
39067;DHT22;24821;51.988;6.020;2024-03-17T02:06:44;5.90;99.90
39067;DHT22;24821;51.988;6.020;2024-03-17T02:09:10;5.90;99.90
39067;DHT22;24821;51.988;6.020;2024-03-17T02:11:36;5.90;99.90
39067;DHT22;24821;51.988;6.020;2024-03-17T02:14:02;6.00;99.90
39067;DHT22;24821;51.988;6.020;2024-03-17T02:16:27;6.10;99.90
39067;DHT22;24821;51.988;6.020;2024-03-17T02:18:56;6.00;99.90
39067;DHT22;24821;51.988;6.020;2024-03-17T02:21:22;6.00;99.90
39067;DHT22;24821;51.988;6.020;2024-03-17T02:23:48;5.90;99.90
39067;DHT22;24821;51.988;6.020;2024-03-17T02:26:14;5.90;99.90
39067;DHT22;24821;51.988;6.020;2024-03-17T02:28:43;5.90;99.90
39067;DHT22;24821;51.988;6.020;2024-03-17T02:31:10;5.90;99.90
39067;DHT22;24821;51.988;6.020;2024-03-17T02:33:36;5.90;99.90
39067;DHT22;24821;51.988;6.020;2024-03-17T02:36:02;5.90;99.90
39067;DHT22;24821;51.988;6.020;2024-03-17T02:38:29;5.80;99.90
39067;DHT22;24821;51.988;6.020;2024-03-17T02:41:13;5.80;99.90
39067;DHT22;24821;51.988;6.020;2024-03-17T02:43:38;5.90;99.90
39067;DHT22;24821;51.988;6.020;2024-03-17T02:46:04;5.90;99.90
39067;DHT22;24821;51.988;6.020;2024-03-17T02:48:30;5.90;99.90
39067;DHT22;24821;51.988;6.020;2024-03-17T02:50:56;6.00;99.90
39067;DHT22;24821;51.988;6.020;2024-03-17T02:53:21;6.00;99.90
39067;DHT22;24821;51.988;6.020;2024-03-17T02:55:47;6.10;99.90
39067;DHT22;24821;51.988;6.020;2024-03-17T02:58:12;6.10;99.90
39067;DHT22;24821;51.988;6.020;2024-03-17T03:00:38;6.20;99.90
39067;DHT22;24821;51.988;6.020;2024-03-17T03:03:05;6.20;99.90
39067;DHT22;24821;51.988;6.020;2024-03-17T03:05:30;6.20;99.90
39067;DHT22;24821;51.988;6.020;2024-03-17T03:07:56;6.30;99.90
39067;DHT22;24821;51.988;6.020;2024-03-17T03:10:21;6.30;99.90
39067;DHT22;24821;51.988;6.020;2024-03-17T03:12:47;6.30;99.90
39067;DHT22;24821;51.988;6.020;2024-03-17T03:15:12;6.30;99.90
39067;DHT22;24821;51.988;6.020;2024-03-17T03:17:38;6.30;99.90
39067;DHT22;24821;51.988;6.020;2024-03-17T03:20:04;6.30;99.90
39067;DHT22;24821;51.988;6.020;2024-03-17T03:22:31;6.30;99.90
39067;DHT22;24821;51.988;6.020;2024-03-17T03:24:56;6.30;99.90
39067;DHT22;24821;51.988;6.020;2024-03-17T03:27:23;6.30;99.90
39067;DHT22;24821;51.988;6.020;2024-03-17T03:29:49;6.30;99.90
39067;DHT22;24821;51.988;6.020;2024-03-17T03:32:15;6.30;99.90
39067;DHT22;24821;51.988;6.020;2024-03-17T03:34:40;6.40;99.90
39067;DHT22;24821;51.988;6.020;2024-03-17T03:37:06;6.40;99.90
39067;DHT22;24821;51.988;6.020;2024-03-17T03:39:33;6.50;99.90
39067;DHT22;24821;51.988;6.020;2024-03-17T03:42:01;6.50;99.90
39067;DHT22;24821;51.988;6.020;2024-03-17T03:44:27;6.60;99.90
39067;DHT22;24821;51.988;6.020;2024-03-17T03:46:53;6.60;99.90
39067;DHT22;24821;51.988;6.020;2024-03-17T03:49:23;6.60;99.90
39067;DHT22;24821;51.988;6.020;2024-03-17T03:51:49;6.60;99.90
39067;DHT22;24821;51.988;6.020;2024-03-17T03:54:14;6.70;99.90
39067;DHT22;24821;51.988;6.020;2024-03-17T03:56:40;6.70;99.90
39067;DHT22;24821;51.988;6.020;2024-03-17T03:59:05;6.70;99.90
39067;DHT22;24821;51.988;6.020;2024-03-17T04:01:31;6.80;99.90
39067;DHT22;24821;51.988;6.020;2024-03-17T04:03:56;6.80;99.90
39067;DHT22;24821;51.988;6.020;2024-03-17T04:06:22;6.80;99.90
39067;DHT22;24821;51.988;6.020;2024-03-17T04:08:48;6.80;99.90
39067;DHT22;24821;51.988;6.020;2024-03-17T04:11:13;6.80;99.90
39067;DHT22;24821;51.988;6.020;2024-03-17T04:13:39;6.80;99.90
39067;DHT22;24821;51.988;6.020;2024-03-17T04:16:05;6.90;99.90
39067;DHT22;24821;51.988;6.020;2024-03-17T04:18:31;6.90;99.90
39067;DHT22;24821;51.988;6.020;2024-03-17T04:21:00;6.90;99.90
39067;DHT22;24821;51.988;6.020;2024-03-17T04:23:26;6.90;99.90
39067;DHT22;24821;51.988;6.020;2024-03-17T04:25:52;7.00;99.90
39067;DHT22;24821;51.988;6.020;2024-03-17T04:28:18;6.90;99.90
39067;DHT22;24821;51.988;6.020;2024-03-17T04:30:44;7.00;99.90
39067;DHT22;24821;51.988;6.020;2024-03-17T04:33:11;7.00;99.90
39067;DHT22;24821;51.988;6.020;2024-03-17T04:35:37;7.00;99.90
39067;DHT22;24821;51.988;6.020;2024-03-17T04:38:02;7.00;99.90
39067;DHT22;24821;51.988;6.020;2024-03-17T04:40:28;7.00;99.90
39067;DHT22;24821;51.988;6.020;2024-03-17T04:42:53;7.00;99.90
39067;DHT22;24821;51.988;6.020;2024-03-17T04:45:19;7.00;99.90
39067;DHT22;24821;51.988;6.020;2024-03-17T04:47:44;7.10;99.90
39067;DHT22;24821;51.988;6.020;2024-03-17T04:50:10;7.00;99.90
39067;DHT22;24821;51.988;6.020;2024-03-17T04:52:37;7.00;99.90
39067;DHT22;24821;51.988;6.020;2024-03-17T04:55:03;7.00;99.90
39067;DHT22;24821;51.988;6.020;2024-03-17T04:57:29;7.10;99.90
39067;DHT22;24821;51.988;6.020;2024-03-17T04:59:54;7.10;99.90
39067;DHT22;24821;51.988;6.020;2024-03-17T05:02:20;7.10;99.90
39067;DHT22;24821;51.988;6.020;2024-03-17T05:04:46;7.10;99.90
39067;DHT22;24821;51.988;6.020;2024-03-17T05:07:13;7.10;99.90
39067;DHT22;24821;51.988;6.020;2024-03-17T05:09:38;7.10;99.90
39067;DHT22;24821;51.988;6.020;2024-03-17T05:12:04;7.10;99.90
39067;DHT22;24821;51.988;6.020;2024-03-17T05:14:29;7.10;99.90
39067;DHT22;24821;51.988;6.020;2024-03-17T05:16:54;7.10;99.90
39067;DHT22;24821;51.988;6.020;2024-03-17T05:19:20;7.00;99.90
39067;DHT22;24821;51.988;6.020;2024-03-17T05:21:45;7.00;99.90
39067;DHT22;24821;51.988;6.020;2024-03-17T05:24:11;7.00;99.90
39067;DHT22;24821;51.988;6.020;2024-03-17T05:26:39;7.00;99.90
39067;DHT22;24821;51.988;6.020;2024-03-17T05:29:05;7.00;99.90
39067;DHT22;24821;51.988;6.020;2024-03-17T05:31:30;7.00;99.90
39067;DHT22;24821;51.988;6.020;2024-03-17T05:33:57;7.00;99.90
39067;DHT22;24821;51.988;6.020;2024-03-17T05:36:22;7.00;99.90
39067;DHT22;24821;51.988;6.020;2024-03-17T05:38:47;7.00;99.90
39067;DHT22;24821;51.988;6.020;2024-03-17T05:41:13;7.10;99.90
39067;DHT22;24821;51.988;6.020;2024-03-17T05:43:39;7.10;99.90
39067;DHT22;24821;51.988;6.020;2024-03-17T05:46:06;7.10;99.90
39067;DHT22;24821;51.988;6.020;2024-03-17T05:48:32;7.10;99.90
39067;DHT22;24821;51.988;6.020;2024-03-17T05:50:57;7.10;99.90
39067;DHT22;24821;51.988;6.020;2024-03-17T05:53:23;7.10;99.90
39067;DHT22;24821;51.988;6.020;2024-03-17T05:55:51;7.10;99.90
39067;DHT22;24821;51.988;6.020;2024-03-17T05:58:17;7.00;99.90
39067;DHT22;24821;51.988;6.020;2024-03-17T06:00:42;7.00;99.90
39067;DHT22;24821;51.988;6.020;2024-03-17T06:03:09;7.00;99.90
39067;DHT22;24821;51.988;6.020;2024-03-17T06:05:35;7.00;99.90
39067;DHT22;24821;51.988;6.020;2024-03-17T06:08:01;7.00;99.90
39067;DHT22;24821;51.988;6.020;2024-03-17T06:10:28;6.90;99.90
39067;DHT22;24821;51.988;6.020;2024-03-17T06:12:54;6.90;99.90
39067;DHT22;24821;51.988;6.020;2024-03-17T06:15:19;6.90;99.90
39067;DHT22;24821;51.988;6.020;2024-03-17T06:17:46;6.90;99.90
39067;DHT22;24821;51.988;6.020;2024-03-17T06:20:11;6.90;99.90
39067;DHT22;24821;51.988;6.020;2024-03-17T06:22:39;6.90;99.90
39067;DHT22;24821;51.988;6.020;2024-03-17T06:25:04;6.90;99.90
39067;DHT22;24821;51.988;6.020;2024-03-17T06:27:30;6.90;99.90
39067;DHT22;24821;51.988;6.020;2024-03-17T06:29:56;6.90;99.90
39067;DHT22;24821;51.988;6.020;2024-03-17T06:32:22;7.00;99.90
39067;DHT22;24821;51.988;6.020;2024-03-17T06:34:47;7.00;99.90
39067;DHT22;24821;51.988;6.020;2024-03-17T06:37:13;7.10;99.90
39067;DHT22;24821;51.988;6.020;2024-03-17T06:39:38;7.20;99.90
39067;DHT22;24821;51.988;6.020;2024-03-17T06:42:04;7.30;99.90
39067;DHT22;24821;51.988;6.020;2024-03-17T06:44:30;7.40;99.90
39067;DHT22;24821;51.988;6.020;2024-03-17T06:46:58;7.50;99.90
39067;DHT22;24821;51.988;6.020;2024-03-17T06:49:23;7.60;99.90
39067;DHT22;24821;51.988;6.020;2024-03-17T06:51:49;7.70;99.90
39067;DHT22;24821;51.988;6.020;2024-03-17T06:54:14;7.80;99.90
39067;DHT22;24821;51.988;6.020;2024-03-17T06:56:40;7.90;99.90
39067;DHT22;24821;51.988;6.020;2024-03-17T06:59:05;8.00;99.90
39067;DHT22;24821;51.988;6.020;2024-03-17T07:01:31;8.10;99.90
39067;DHT22;24821;51.988;6.020;2024-03-17T07:03:56;8.30;99.90
39067;DHT22;24821;51.988;6.020;2024-03-17T07:06:21;8.40;99.90
39067;DHT22;24821;51.988;6.020;2024-03-17T07:08:47;8.50;99.90
39067;DHT22;24821;51.988;6.020;2024-03-17T07:11:12;8.50;99.90
39067;DHT22;24821;51.988;6.020;2024-03-17T07:13:38;8.70;99.90
39067;DHT22;24821;51.988;6.020;2024-03-17T07:16:07;8.80;99.90
39067;DHT22;24821;51.988;6.020;2024-03-17T07:18:33;8.90;99.90
39067;DHT22;24821;51.988;6.020;2024-03-17T07:20:59;9.10;99.90
39067;DHT22;24821;51.988;6.020;2024-03-17T07:23:25;9.10;99.90
39067;DHT22;24821;51.988;6.020;2024-03-17T07:25:51;9.20;99.90
39067;DHT22;24821;51.988;6.020;2024-03-17T07:28:18;9.20;99.90
39067;DHT22;24821;51.988;6.020;2024-03-17T07:30:50;9.40;99.90
39067;DHT22;24821;51.988;6.020;2024-03-17T07:33:15;9.40;99.90
39067;DHT22;24821;51.988;6.020;2024-03-17T07:35:51;9.40;99.90
39067;DHT22;24821;51.988;6.020;2024-03-17T07:38:17;9.40;99.90
39067;DHT22;24821;51.988;6.020;2024-03-17T07:40:43;9.50;99.90
39067;DHT22;24821;51.988;6.020;2024-03-17T07:43:08;9.40;99.90
39067;DHT22;24821;51.988;6.020;2024-03-17T07:45:34;9.40;99.90
39067;DHT22;24821;51.988;6.020;2024-03-17T07:47:59;9.40;99.90
39067;DHT22;24821;51.988;6.020;2024-03-17T07:50:25;9.30;99.90
39067;DHT22;24821;51.988;6.020;2024-03-17T07:52:50;9.30;99.90
39067;DHT22;24821;51.988;6.020;2024-03-17T07:55:16;9.30;99.90
39067;DHT22;24821;51.988;6.020;2024-03-17T07:57:41;9.40;99.90
39067;DHT22;24821;51.988;6.020;2024-03-17T08:00:07;9.50;99.90
39067;DHT22;24821;51.988;6.020;2024-03-17T08:02:49;9.80;99.90
39067;DHT22;24821;51.988;6.020;2024-03-17T08:05:15;10.00;99.90
39067;DHT22;24821;51.988;6.020;2024-03-17T08:07:40;10.10;99.90
39067;DHT22;24821;51.988;6.020;2024-03-17T08:10:07;10.20;99.90
39067;DHT22;24821;51.988;6.020;2024-03-17T08:12:33;10.30;99.90
39067;DHT22;24821;51.988;6.020;2024-03-17T08:14:58;10.40;99.90
39067;DHT22;24821;51.988;6.020;2024-03-17T08:17:25;10.40;99.90
39067;DHT22;24821;51.988;6.020;2024-03-17T08:19:50;10.50;99.90
39067;DHT22;24821;51.988;6.020;2024-03-17T08:22:16;10.60;99.90
39067;DHT22;24821;51.988;6.020;2024-03-17T08:24:41;10.60;99.90
39067;DHT22;24821;51.988;6.020;2024-03-17T08:27:07;10.80;99.90
39067;DHT22;24821;51.988;6.020;2024-03-17T08:29:32;10.80;99.90
39067;DHT22;24821;51.988;6.020;2024-03-17T08:32:00;10.80;99.90
39067;DHT22;24821;51.988;6.020;2024-03-17T08:34:26;10.90;99.90
39067;DHT22;24821;51.988;6.020;2024-03-17T08:36:52;11.00;99.90
39067;DHT22;24821;51.988;6.020;2024-03-17T08:39:18;11.00;99.90
39067;DHT22;24821;51.988;6.020;2024-03-17T08:41:44;11.10;99.90
39067;DHT22;24821;51.988;6.020;2024-03-17T08:44:10;11.10;99.90
39067;DHT22;24821;51.988;6.020;2024-03-17T08:46:36;11.20;99.90
39067;DHT22;24821;51.988;6.020;2024-03-17T08:49:01;11.30;99.90
39067;DHT22;24821;51.988;6.020;2024-03-17T08:51:27;11.40;99.90
39067;DHT22;24821;51.988;6.020;2024-03-17T08:53:53;11.50;99.90
39067;DHT22;24821;51.988;6.020;2024-03-17T08:56:18;11.60;99.90
39067;DHT22;24821;51.988;6.020;2024-03-17T08:58:45;11.60;99.90
39067;DHT22;24821;51.988;6.020;2024-03-17T09:01:11;11.60;99.90
39067;DHT22;24821;51.988;6.020;2024-03-17T09:03:39;11.60;99.90
39067;DHT22;24821;51.988;6.020;2024-03-17T09:06:13;11.50;99.90
39067;DHT22;24821;51.988;6.020;2024-03-17T09:08:39;11.50;99.90
39067;DHT22;24821;51.988;6.020;2024-03-17T09:11:06;11.60;99.90
39067;DHT22;24821;51.988;6.020;2024-03-17T09:13:36;11.70;99.90
39067;DHT22;24821;51.988;6.020;2024-03-17T09:16:02;11.70;99.90
39067;DHT22;24821;51.988;6.020;2024-03-17T09:18:28;11.80;99.90
39067;DHT22;24821;51.988;6.020;2024-03-17T09:21:03;11.70;99.90
39067;DHT22;24821;51.988;6.020;2024-03-17T09:23:30;11.70;99.90
39067;DHT22;24821;51.988;6.020;2024-03-17T09:28:20;11.80;99.90
39067;DHT22;24821;51.988;6.020;2024-03-17T09:30:46;11.80;99.90
39067;DHT22;24821;51.988;6.020;2024-03-17T09:33:12;11.80;99.90
39067;DHT22;24821;51.988;6.020;2024-03-17T09:35:38;11.80;99.90
39067;DHT22;24821;51.988;6.020;2024-03-17T09:38:03;11.80;99.90
39067;DHT22;24821;51.988;6.020;2024-03-17T09:40:30;11.90;99.90
39067;DHT22;24821;51.988;6.020;2024-03-17T09:42:56;11.90;99.90
39067;DHT22;24821;51.988;6.020;2024-03-17T09:45:21;11.90;99.90
39067;DHT22;24821;51.988;6.020;2024-03-17T09:47:48;11.90;99.90
39067;DHT22;24821;51.988;6.020;2024-03-17T09:50:14;11.80;99.90
39067;DHT22;24821;51.988;6.020;2024-03-17T09:52:44;11.70;99.90
39067;DHT22;24821;51.988;6.020;2024-03-17T09:55:13;11.80;99.90
39067;DHT22;24821;51.988;6.020;2024-03-17T09:57:40;11.70;99.90
39067;DHT22;24821;51.988;6.020;2024-03-17T10:00:12;11.70;99.90
39067;DHT22;24821;51.988;6.020;2024-03-17T10:02:42;11.70;99.90
39067;DHT22;24821;51.988;6.020;2024-03-17T10:05:29;11.80;99.90
39067;DHT22;24821;51.988;6.020;2024-03-17T10:07:54;11.70;99.90
39067;DHT22;24821;51.988;6.020;2024-03-17T10:10:20;11.80;99.90
39067;DHT22;24821;51.988;6.020;2024-03-17T10:12:52;11.90;99.90
39067;DHT22;24821;51.988;6.020;2024-03-17T10:15:17;12.00;99.90
39067;DHT22;24821;51.988;6.020;2024-03-17T10:17:43;12.00;99.90
39067;DHT22;24821;51.988;6.020;2024-03-17T10:20:12;12.00;99.90
39067;DHT22;24821;51.988;6.020;2024-03-17T10:23:02;12.20;99.90
39067;DHT22;24821;51.988;6.020;2024-03-17T10:25:33;12.30;99.90
39067;DHT22;24821;51.988;6.020;2024-03-17T10:28:00;12.40;99.90
39067;DHT22;24821;51.988;6.020;2024-03-17T10:30:26;12.40;99.90
39067;DHT22;24821;51.988;6.020;2024-03-17T10:33:01;12.50;99.90
39067;DHT22;24821;51.988;6.020;2024-03-17T10:37:54;12.60;99.90
39067;DHT22;24821;51.988;6.020;2024-03-17T10:40:20;12.60;99.90
39067;DHT22;24821;51.988;6.020;2024-03-17T10:42:45;12.60;99.90
39067;DHT22;24821;51.988;6.020;2024-03-17T10:45:13;12.70;99.90
39067;DHT22;24821;51.988;6.020;2024-03-17T10:47:39;12.80;99.90
39067;DHT22;24821;51.988;6.020;2024-03-17T10:50:06;12.80;99.90
39067;DHT22;24821;51.988;6.020;2024-03-17T10:52:33;12.90;99.90
39067;DHT22;24821;51.988;6.020;2024-03-17T10:55:01;13.10;99.90
39067;DHT22;24821;51.988;6.020;2024-03-17T10:57:32;13.10;99.90
39067;DHT22;24821;51.988;6.020;2024-03-17T11:00:00;13.20;99.90
39067;DHT22;24821;51.988;6.020;2024-03-17T11:02:29;13.20;99.90
39067;DHT22;24821;51.988;6.020;2024-03-17T11:04:59;13.30;99.90
39067;DHT22;24821;51.988;6.020;2024-03-17T11:07:24;13.30;99.90
39067;DHT22;24821;51.988;6.020;2024-03-17T11:09:53;13.30;99.90
39067;DHT22;24821;51.988;6.020;2024-03-17T11:17:47;13.30;99.90
39067;DHT22;24821;51.988;6.020;2024-03-17T11:20:17;13.40;99.90
39067;DHT22;24821;51.988;6.020;2024-03-17T11:22:44;13.40;99.90
39067;DHT22;24821;51.988;6.020;2024-03-17T11:27:54;13.50;99.90
39067;DHT22;24821;51.988;6.020;2024-03-17T11:33:03;13.50;99.90
39067;DHT22;24821;51.988;6.020;2024-03-17T11:35:49;13.40;99.90
39067;DHT22;24821;51.988;6.020;2024-03-17T11:43:43;13.30;99.90
39067;DHT22;24821;51.988;6.020;2024-03-17T11:46:10;13.30;99.90
39067;DHT22;24821;51.988;6.020;2024-03-17T11:48:36;13.30;99.90
39067;DHT22;24821;51.988;6.020;2024-03-17T11:51:02;13.30;99.90
39067;DHT22;24821;51.988;6.020;2024-03-17T11:53:29;13.30;99.90
39067;DHT22;24821;51.988;6.020;2024-03-17T11:55:54;13.20;99.90
39067;DHT22;24821;51.988;6.020;2024-03-17T11:58:20;13.20;99.90
39067;DHT22;24821;51.988;6.020;2024-03-17T12:00:51;13.20;99.90
39067;DHT22;24821;51.988;6.020;2024-03-17T12:03:16;13.20;99.90
39067;DHT22;24821;51.988;6.020;2024-03-17T12:05:42;13.30;99.90
39067;DHT22;24821;51.988;6.020;2024-03-17T12:08:29;13.20;99.90
39067;DHT22;24821;51.988;6.020;2024-03-17T12:10:53;13.10;99.90
39067;DHT22;24821;51.988;6.020;2024-03-17T12:13:19;13.10;99.90
39067;DHT22;24821;51.988;6.020;2024-03-17T12:15:44;13.20;99.90
39067;DHT22;24821;51.988;6.020;2024-03-17T12:18:20;13.30;99.90
39067;DHT22;24821;51.988;6.020;2024-03-17T12:20:48;13.40;99.90
39067;DHT22;24821;51.988;6.020;2024-03-17T12:23:14;13.40;99.90
39067;DHT22;24821;51.988;6.020;2024-03-17T12:25:46;13.50;99.90
39067;DHT22;24821;51.988;6.020;2024-03-17T12:28:15;13.50;99.90
39067;DHT22;24821;51.988;6.020;2024-03-17T12:30:41;13.50;99.90
39067;DHT22;24821;51.988;6.020;2024-03-17T12:33:08;13.50;99.90
39067;DHT22;24821;51.988;6.020;2024-03-17T12:35:36;13.60;99.90
39067;DHT22;24821;51.988;6.020;2024-03-17T12:38:01;13.50;99.90
39067;DHT22;24821;51.988;6.020;2024-03-17T12:40:26;13.50;99.90
39067;DHT22;24821;51.988;6.020;2024-03-17T12:42:54;13.60;99.90
39067;DHT22;24821;51.988;6.020;2024-03-17T12:45:20;13.50;99.90
39067;DHT22;24821;51.988;6.020;2024-03-17T12:47:47;13.60;99.90
39067;DHT22;24821;51.988;6.020;2024-03-17T12:50:13;13.70;99.90
39067;DHT22;24821;51.988;6.020;2024-03-17T12:52:40;13.70;99.90
39067;DHT22;24821;51.988;6.020;2024-03-17T12:55:09;13.80;99.90
39067;DHT22;24821;51.988;6.020;2024-03-17T12:58:04;13.80;99.90
39067;DHT22;24821;51.988;6.020;2024-03-17T13:03:24;14.10;99.90
39067;DHT22;24821;51.988;6.020;2024-03-17T13:05:50;14.20;99.90
39067;DHT22;24821;51.988;6.020;2024-03-17T13:08:16;14.20;99.90
39067;DHT22;24821;51.988;6.020;2024-03-17T13:10:42;14.30;99.90
39067;DHT22;24821;51.988;6.020;2024-03-17T13:13:08;14.30;99.90
39067;DHT22;24821;51.988;6.020;2024-03-17T13:15:34;14.30;99.90
39067;DHT22;24821;51.988;6.020;2024-03-17T13:18:02;14.30;99.90
39067;DHT22;24821;51.988;6.020;2024-03-17T13:20:29;14.30;99.90
39067;DHT22;24821;51.988;6.020;2024-03-17T13:22:54;14.20;99.90
39067;DHT22;24821;51.988;6.020;2024-03-17T13:25:21;14.20;99.90
39067;DHT22;24821;51.988;6.020;2024-03-17T13:27:48;14.20;99.90
39067;DHT22;24821;51.988;6.020;2024-03-17T13:30:15;14.20;99.90
39067;DHT22;24821;51.988;6.020;2024-03-17T13:32:41;14.20;99.90
39067;DHT22;24821;51.988;6.020;2024-03-17T13:35:18;14.20;99.90
39067;DHT22;24821;51.988;6.020;2024-03-17T13:37:44;14.10;99.90
39067;DHT22;24821;51.988;6.020;2024-03-17T13:40:11;14.20;99.90
39067;DHT22;24821;51.988;6.020;2024-03-17T13:42:40;14.10;99.90
39067;DHT22;24821;51.988;6.020;2024-03-17T13:45:07;14.10;99.90
39067;DHT22;24821;51.988;6.020;2024-03-17T13:47:35;14.10;99.90
39067;DHT22;24821;51.988;6.020;2024-03-17T13:50:00;14.00;99.90
39067;DHT22;24821;51.988;6.020;2024-03-17T13:52:25;14.00;99.90
39067;DHT22;24821;51.988;6.020;2024-03-17T13:54:51;14.00;99.90
39067;DHT22;24821;51.988;6.020;2024-03-17T13:57:16;14.00;99.90
39067;DHT22;24821;51.988;6.020;2024-03-17T13:59:42;14.00;99.90
39067;DHT22;24821;51.988;6.020;2024-03-17T14:02:11;14.00;99.90
39067;DHT22;24821;51.988;6.020;2024-03-17T14:04:37;14.00;99.90
39067;DHT22;24821;51.988;6.020;2024-03-17T14:07:03;13.90;99.90
39067;DHT22;24821;51.988;6.020;2024-03-17T14:09:29;14.00;99.90
39067;DHT22;24821;51.988;6.020;2024-03-17T14:11:55;14.00;99.90
39067;DHT22;24821;51.988;6.020;2024-03-17T14:14:22;14.00;99.90
39067;DHT22;24821;51.988;6.020;2024-03-17T14:16:48;14.00;99.90
39067;DHT22;24821;51.988;6.020;2024-03-17T14:19:13;13.90;99.90
39067;DHT22;24821;51.988;6.020;2024-03-17T14:21:38;14.00;99.90
39067;DHT22;24821;51.988;6.020;2024-03-17T14:24:04;14.00;99.90
39067;DHT22;24821;51.988;6.020;2024-03-17T14:26:33;13.90;99.90
39067;DHT22;24821;51.988;6.020;2024-03-17T14:28:58;14.00;99.90
39067;DHT22;24821;51.988;6.020;2024-03-17T14:31:25;13.80;99.90
39067;DHT22;24821;51.988;6.020;2024-03-17T14:33:50;13.80;99.90
39067;DHT22;24821;51.988;6.020;2024-03-17T14:36:16;13.80;99.90
39067;DHT22;24821;51.988;6.020;2024-03-17T14:38:43;13.70;99.90
39067;DHT22;24821;51.988;6.020;2024-03-17T14:41:08;13.70;99.90
39067;DHT22;24821;51.988;6.020;2024-03-17T14:43:34;13.70;99.90
39067;DHT22;24821;51.988;6.020;2024-03-17T14:46:03;13.60;99.90
39067;DHT22;24821;51.988;6.020;2024-03-17T14:48:29;13.70;99.90
39067;DHT22;24821;51.988;6.020;2024-03-17T14:50:54;13.70;99.90
39067;DHT22;24821;51.988;6.020;2024-03-17T14:53:20;13.70;99.90
39067;DHT22;24821;51.988;6.020;2024-03-17T14:55:45;13.70;99.90
39067;DHT22;24821;51.988;6.020;2024-03-17T14:58:11;13.80;99.90
39067;DHT22;24821;51.988;6.020;2024-03-17T15:00:37;13.90;99.90
39067;DHT22;24821;51.988;6.020;2024-03-17T15:03:03;13.90;99.90
39067;DHT22;24821;51.988;6.020;2024-03-17T15:05:31;14.00;99.90
39067;DHT22;24821;51.988;6.020;2024-03-17T15:07:56;14.00;99.90
39067;DHT22;24821;51.988;6.020;2024-03-17T15:10:23;14.10;99.90
39067;DHT22;24821;51.988;6.020;2024-03-17T15:12:48;14.10;99.90
39067;DHT22;24821;51.988;6.020;2024-03-17T15:15:14;14.20;99.90
39067;DHT22;24821;51.988;6.020;2024-03-17T15:17:39;14.20;99.90
39067;DHT22;24821;51.988;6.020;2024-03-17T15:20:06;14.20;99.90
39067;DHT22;24821;51.988;6.020;2024-03-17T15:22:48;14.30;99.90
39067;DHT22;24821;51.988;6.020;2024-03-17T15:25:14;14.30;99.90
39067;DHT22;24821;51.988;6.020;2024-03-17T15:27:43;14.30;99.90
39067;DHT22;24821;51.988;6.020;2024-03-17T15:30:13;14.30;99.90
39067;DHT22;24821;51.988;6.020;2024-03-17T15:32:44;14.30;99.90
39067;DHT22;24821;51.988;6.020;2024-03-17T15:35:10;14.30;99.90
39067;DHT22;24821;51.988;6.020;2024-03-17T15:37:35;14.40;99.90
39067;DHT22;24821;51.988;6.020;2024-03-17T15:40:01;14.30;99.90
39067;DHT22;24821;51.988;6.020;2024-03-17T15:42:26;14.30;99.90
39067;DHT22;24821;51.988;6.020;2024-03-17T15:44:52;14.30;99.90
39067;DHT22;24821;51.988;6.020;2024-03-17T15:47:18;14.20;99.90
39067;DHT22;24821;51.988;6.020;2024-03-17T15:49:44;14.20;99.90
39067;DHT22;24821;51.988;6.020;2024-03-17T15:52:10;14.10;99.90
39067;DHT22;24821;51.988;6.020;2024-03-17T15:54:35;14.20;99.90
39067;DHT22;24821;51.988;6.020;2024-03-17T15:57:00;14.20;99.90
39067;DHT22;24821;51.988;6.020;2024-03-17T15:59:26;14.10;99.90